Wetterdaten: aktuell Mittwoch, 21.08.2019 22:10
Datum Zeit Temp. A. Feuchte A. Luftdruck Regen Wind Richtung Richtung Taupunkt Windchill Windben Empfang
21.08.2019 22:10 15,8 C 77 % 1027,1 hPa 0,0 l/m 0,0 km/h (0 Bft) S 175 11,8 C 15,8 C 0,0 km/h (0 Bft) 99 %
21.08.2019 22:00 16,2 C 76 % 1027,1 hPa 0,0 l/m 0,0 km/h (0 Bft) S 175 12,0 C 16,2 C 0,0 km/h (0 Bft) 100 %
21.08.2019 21:50 16,5 C 75 % 1027,1 hPa 0,0 l/m 0,0 km/h (0 Bft) S 175 12,1 C 16,5 C 0,0 km/h (0 Bft) 99 %
21.08.2019 21:40 16,8 C 74 % 1027,0 hPa 0,0 l/m 0,0 km/h (0 Bft) S 175 12,1 C 16,8 C 0,0 km/h (0 Bft) 100 %
21.08.2019 21:30 17,3 C 73 % 1026,9 hPa 0,0 l/m 0,0 km/h (0 Bft) S 175 12,4 C 17,3 C 0,0 km/h (0 Bft) 100 %
21.08.2019 21:20 17,6 C 70 % 1026,9 hPa 0,0 l/m 0,0 km/h (0 Bft) S 175 12,1 C 17,6 C 0,0 km/h (0 Bft) 100 %
21.08.2019 21:10 18,0 C 68 % 1027,0 hPa 0,0 l/m 0,0 km/h (0 Bft) S 175 12,0 C 18,0 C 0,0 km/h (0 Bft) 99 %
21.08.2019 21:00 18,4 C 66 % 1026,9 hPa 0,0 l/m 0,0 km/h (0 Bft) S 175 11,9 C 18,4 C 0,0 km/h (0 Bft) 100 %
21.08.2019 20:50 18,9 C 65 % 1026,8 hPa 0,0 l/m 0,0 km/h (0 Bft) S 175 12,2 C 18,9 C 0,0 km/h (0 Bft) 100 %
21.08.2019 20:40 19,2 C 64 % 1026,8 hPa 0,0 l/m 0,0 km/h (0 Bft) S 175 12,2 C 19,2 C 0,0 km/h (0 Bft) 99 %
21.08.2019 20:30 19,6 C 63 % 1026,7 hPa 0,0 l/m 0,0 km/h (0 Bft) S 175 12,4 C 19,6 C 0,0 km/h (0 Bft) 100 %
21.08.2019 20:20 19,9 C 59 % 1026,8 hPa 0,0 l/m 0,0 km/h (0 Bft) S-SW 213 11,6 C 19,9 C 0,0 km/h (0 Bft) 99 %
21.08.2019 20:10 20,3 C 59 % 1026,7 hPa 0,0 l/m 0,0 km/h (0 Bft) S-SW 213 12,0 C 20,3 C 0,0 km/h (0 Bft) 99 %
21.08.2019 20:00 20,6 C 56 % 1026,8 hPa 0,0 l/m 0,0 km/h (0 Bft) S-SW 213 11,5 C 20,6 C 0,0 km/h (0 Bft) 100 %
21.08.2019 19:50 21,0 C 55 % 1026,9 hPa 0,0 l/m 0,0 km/h (0 Bft) S-SW 213 11,6 C 21,0 C 0,0 km/h (0 Bft) 100 %
21.08.2019 19:40 21,3 C 54 % 1026,8 hPa 0,0 l/m 0,0 km/h (0 Bft) S-SW 213 11,6 C 21,3 C 0,0 km/h (0 Bft) 99 %
21.08.2019 19:30 21,4 C 51 % 1026,7 hPa 0,0 l/m 0,0 km/h (0 Bft) S-SW 213 10,8 C 21,4 C 0,0 km/h (0 Bft) 99 %
21.08.2019 19:20 21,7 C 50 % 1026,7 hPa 0,0 l/m 0,7 km/h (0 Bft) S-SW 213 10,8 C 21,7 C 4,1 km/h (1 Bft) 99 %
21.08.2019 19:10 21,8 C 51 % 1026,7 hPa 0,0 l/m 2,5 km/h (1 Bft) S-SW 213 11,2 C 21,8 C 6,1 km/h (2 Bft) 98 %
21.08.2019 19:00 21,9 C 50 % 1026,8 hPa 0,0 l/m 1,8 km/h (1 Bft) S-SW 200 11,0 C 21,9 C 4,1 km/h (1 Bft) 98 %
21.08.2019 18:50 21,9 C 50 % 1026,9 hPa 0,0 l/m 2,6 km/h (1 Bft) S-SW 200 11,0 C 21,9 C 6,1 km/h (2 Bft) 99 %
21.08.2019 18:40 22,2 C 48 % 1026,9 hPa 0,0 l/m 3,3 km/h (1 Bft) S-SW 203 10,7 C 22,2 C 8,1 km/h (2 Bft) 99 %
21.08.2019 18:30 22,7 C 48 % 1027,0 hPa 0,0 l/m 3,7 km/h (1 Bft) S-SW 195 11,1 C 22,7 C 12,2 km/h (2 Bft) 100 %
21.08.2019 18:20 22,7 C 49 % 1027,1 hPa 0,0 l/m 3,3 km/h (1 Bft) W 266 11,4 C 22,7 C 6,1 km/h (2 Bft) 99 %
21.08.2019 18:10 22,7 C 48 % 1027,0 hPa 0,0 l/m 4,8 km/h (1 Bft) S-SW 200 11,1 C 22,7 C 16,2 km/h (3 Bft) 100 %
21.08.2019 18:00 22,2 C 53 % 1027,2 hPa 0,0 l/m 3,8 km/h (1 Bft) W-SW 247 12,2 C 22,2 C 8,1 km/h (2 Bft) 98 %
21.08.2019 17:50 21,8 C 51 % 1027,2 hPa 0,0 l/m 4,5 km/h (1 Bft) W-SW 239 11,2 C 21,8 C 14,2 km/h (3 Bft) 99 %
21.08.2019 17:40 21,7 C 51 % 1027,2 hPa 0,0 l/m 2,3 km/h (1 Bft) S 182 11,1 C 21,7 C 8,1 km/h (2 Bft) 98 %
21.08.2019 17:30 21,4 C 52 % 1027,3 hPa 0,0 l/m 2,9 km/h (1 Bft) S 182 11,1 C 21,4 C 8,1 km/h (2 Bft) 100 %
21.08.2019 17:20 21,2 C 54 % 1027,3 hPa 0,0 l/m 1,6 km/h (1 Bft) S-SW 196 11,5 C 21,2 C 4,1 km/h (1 Bft) 98 %
21.08.2019 17:10 20,8 C 54 % 1027,4 hPa 0,0 l/m 1,9 km/h (1 Bft) S-SW 196 11,1 C 20,8 C 8,1 km/h (2 Bft) 99 %
21.08.2019 17:00 20,7 C 54 % 1027,4 hPa 0,0 l/m 4,8 km/h (1 Bft) S-SW 197 11,1 C 20,7 C 10,1 km/h (2 Bft) 98 %
21.08.2019 16:50 20,8 C 54 % 1027,5 hPa 0,0 l/m 4,6 km/h (1 Bft) W 263 11,1 C 20,8 C 12,2 km/h (2 Bft) 100 %
21.08.2019 16:40 20,8 C 53 % 1027,5 hPa 0,0 l/m 4,1 km/h (1 Bft) S-SW 202 10,9 C 20,8 C 10,1 km/h (2 Bft) 99 %
21.08.2019 16:30 20,8 C 54 % 1027,4 hPa 0,0 l/m 6,0 km/h (2 Bft) SW 221 11,1 C 20,8 C 14,2 km/h (3 Bft) 100 %
21.08.2019 16:20 20,9 C 54 % 1027,5 hPa 0,0 l/m 4,2 km/h (1 Bft) S-SW 202 11,2 C 20,9 C 10,1 km/h (2 Bft) 99 %
21.08.2019 16:10 21,1 C 52 % 1027,5 hPa 0,0 l/m 4,3 km/h (1 Bft) SW 227 10,9 C 21,1 C 12,2 km/h (2 Bft) 99 %
21.08.2019 16:00 21,1 C 53 % 1027,6 hPa 0,0 l/m 3,9 km/h (1 Bft) S-SW 211 11,1 C 21,1 C 10,1 km/h (2 Bft) 100 %
21.08.2019 15:50 20,7 C 53 % 1027,6 hPa 0,0 l/m 3,0 km/h (1 Bft) S-SW 211 10,8 C 20,7 C 8,1 km/h (2 Bft) 99 %
21.08.2019 15:40 20,6 C 53 % 1027,7 hPa 0,0 l/m 4,1 km/h (1 Bft) W-SW 252 10,7 C 20,6 C 10,1 km/h (2 Bft) 100 %
21.08.2019 15:30 20,7 C 53 % 1027,7 hPa 0,0 l/m 4,0 km/h (1 Bft) SW 233 10,8 C 20,7 C 16,2 km/h (3 Bft) 100 %
21.08.2019 15:20 20,7 C 54 % 1027,7 hPa 0,0 l/m 4,0 km/h (1 Bft) SW 221 11,1 C 20,7 C 8,1 km/h (2 Bft) 99 %
21.08.2019 15:10 20,8 C 51 % 1027,6 hPa 0,0 l/m 6,4 km/h (2 Bft) S 169 10,3 C 20,8 C 16,2 km/h (3 Bft) 99 %
21.08.2019 15:00 20,9 C 52 % 1027,6 hPa 0,0 l/m 5,7 km/h (1 Bft) SW 232 10,7 C 20,9 C 14,2 km/h (3 Bft) 100 %
21.08.2019 14:50 21,0 C 52 % 1027,6 hPa 0,0 l/m 6,4 km/h (2 Bft) W-SW 250 10,8 C 21,0 C 16,2 km/h (3 Bft) 100 %
21.08.2019 14:40 21,2 C 51 % 1027,6 hPa 0,0 l/m 7,8 km/h (2 Bft) W-NW 286 10,7 C 21,2 C 16,2 km/h (3 Bft) 99 %
21.08.2019 14:30 21,4 C 53 % 1027,6 hPa 0,0 l/m 4,5 km/h (1 Bft) SW 215 11,4 C 21,4 C 12,2 km/h (2 Bft) 100 %
21.08.2019 14:20 21,4 C 50 % 1027,7 hPa 0,0 l/m 7,2 km/h (2 Bft) S-SW 198 10,5 C 21,4 C 20,3 km/h (4 Bft) 99 %
21.08.2019 14:10 21,8 C 50 % 1027,7 hPa 0,0 l/m 8,9 km/h (2 Bft) S-SO 150 10,9 C 21,8 C 22,3 km/h (4 Bft) 99 %
21.08.2019 14:00 21,7 C 51 % 1027,7 hPa 0,0 l/m 6,8 km/h (2 Bft) S 185 11,1 C 21,7 C 20,3 km/h (4 Bft) 100 %
21.08.2019 13:50 21,3 C 54 % 1027,8 hPa 0,0 l/m 10,8 km/h (2 Bft) S-SW 211 11,6 C 21,3 C 24,3 km/h (4 Bft) 99 %
21.08.2019 13:40 21,3 C 51 % 1027,8 hPa 0,0 l/m 12,0 km/h (2 Bft) S-SW 192 10,7 C 21,3 C 26,4 km/h (4 Bft) 99 %
21.08.2019 13:30 21,4 C 51 % 1027,8 hPa 0,0 l/m 7,9 km/h (2 Bft) SW 236 10,8 C 21,4 C 22,3 km/h (4 Bft) 99 %
21.08.2019 13:20 21,1 C 50 % 1027,9 hPa 0,0 l/m 9,3 km/h (2 Bft) W-SW 253 10,3 C 21,1 C 22,3 km/h (4 Bft) 98 %
21.08.2019 13:10 21,0 C 51 % 1028,1 hPa 0,0 l/m 8,6 km/h (2 Bft) W-SW 240 10,5 C 21,0 C 24,3 km/h (4 Bft) 98 %
21.08.2019 13:00 20,4 C 58 % 1028,1 hPa 0,0 l/m 7,0 km/h (2 Bft) W-NW 291 11,9 C 20,4 C 18,2 km/h (3 Bft) 99 %
21.08.2019 12:50 20,3 C 56 % 1028,2 hPa 0,0 l/m 7,6 km/h (2 Bft) SW 221 11,2 C 20,3 C 20,3 km/h (4 Bft) 98 %
21.08.2019 12:40 20,1 C 57 % 1028,2 hPa 0,0 l/m 6,0 km/h (2 Bft) S-SW 195 11,3 C 20,1 C 18,2 km/h (3 Bft) 99 %
21.08.2019 12:30 20,7 C 56 % 1028,2 hPa 0,0 l/m 7,7 km/h (2 Bft) S 191 11,6 C 20,7 C 18,2 km/h (3 Bft) 100 %
21.08.2019 12:20 20,3 C 57 % 1028,2 hPa 0,0 l/m 8,3 km/h (2 Bft) S 186 11,5 C 20,3 C 20,3 km/h (4 Bft) 100 %
21.08.2019 12:10 20,3 C 58 % 1028,2 hPa 0,0 l/m 8,5 km/h (2 Bft) S-SW 206 11,8 C 20,3 C 18,2 km/h (3 Bft) 99 %
21.08.2019 12:00 19,8 C 61 % 1028,2 hPa 0,0 l/m 9,7 km/h (2 Bft) SW 221 12,1 C 19,8 C 22,3 km/h (4 Bft) 100 %
21.08.2019 11:50 19,8 C 59 % 1028,3 hPa 0,0 l/m 11,2 km/h (2 Bft) SW 220 11,6 C 19,8 C 26,4 km/h (4 Bft) 99 %
21.08.2019 11:40 19,6 C 61 % 1028,3 hPa 0,0 l/m 10,1 km/h (2 Bft) SW 226 11,9 C 19,6 C 22,3 km/h (4 Bft) 98 %
21.08.2019 11:30 19,3 C 60 % 1028,3 hPa 0,0 l/m 10,3 km/h (2 Bft) S-SW 213 11,3 C 19,3 C 22,3 km/h (4 Bft) 99 %
21.08.2019 11:20 19,2 C 66 % 1028,2 hPa 0,0 l/m 8,1 km/h (2 Bft) SW 222 12,7 C 19,2 C 18,2 km/h (3 Bft) 99 %
21.08.2019 11:10 18,9 C 68 % 1028,2 hPa 0,0 l/m 7,4 km/h (2 Bft) SW 222 12,9 C 18,9 C 18,2 km/h (3 Bft) 100 %
21.08.2019 11:00 18,6 C 68 % 1028,2 hPa 0,0 l/m 10,5 km/h (2 Bft) S-SW 195 12,6 C 18,6 C 22,3 km/h (4 Bft) 99 %
21.08.2019 10:50 18,2 C 74 % 1028,2 hPa 0,0 l/m 8,0 km/h (2 Bft) SW 214 13,5 C 18,2 C 16,2 km/h (3 Bft) 99 %
21.08.2019 10:40 17,8 C 78 % 1028,2 hPa 0,0 l/m 8,1 km/h (2 Bft) S-SW 204 13,9 C 17,8 C 20,3 km/h (4 Bft) 99 %
21.08.2019 10:30 17,5 C 77 % 1028,2 hPa 0,0 l/m 8,9 km/h (2 Bft) S 184 13,4 C 17,5 C 20,3 km/h (4 Bft) 100 %
21.08.2019 10:20 17,2 C 80 % 1028,2 hPa 0,0 l/m 8,5 km/h (2 Bft) S 183 13,7 C 17,2 C 18,2 km/h (3 Bft) 99 %
21.08.2019 10:10 16,8 C 82 % 1028,2 hPa 0,0 l/m 6,4 km/h (2 Bft) S 188 13,7 C 16,8 C 18,2 km/h (3 Bft) 99 %
21.08.2019 10:00 16,3 C 85 % 1028,2 hPa 0,0 l/m 3,2 km/h (1 Bft) S-SW 203 13,8 C 16,3 C 12,2 km/h (2 Bft) 100 %
21.08.2019 09:50 15,6 C 86 % 1028,2 hPa 0,0 l/m 5,5 km/h (1 Bft) SW 227 13,3 C 15,6 C 18,2 km/h (3 Bft) 100 %
21.08.2019 09:40 15,1 C 88 % 1028,3 hPa 0,0 l/m 4,3 km/h (1 Bft) SW 217 13,1 C 15,1 C 12,2 km/h (2 Bft) 100 %
21.08.2019 09:30 14,6 C 88 % 1028,2 hPa 0,0 l/m 6,5 km/h (2 Bft) SW 217 12,6 C 14,6 C 14,2 km/h (3 Bft) 98 %
21.08.2019 09:20 14,1 C 89 % 1028,2 hPa 0,0 l/m 7,1 km/h (2 Bft) S-SW 202 12,3 C 14,1 C 16,2 km/h (3 Bft) 99 %
21.08.2019 09:10 13,7 C 90 % 1028,2 hPa 0,0 l/m 8,0 km/h (2 Bft) SW 217 12,1 C 13,7 C 14,2 km/h (3 Bft) 99 %
21.08.2019 09:00 13,4 C 92 % 1028,2 hPa 0,0 l/m 5,7 km/h (1 Bft) SW 232 12,1 C 13,4 C 14,2 km/h (3 Bft) 99 %
21.08.2019 08:50 13,1 C 92 % 1028,1 hPa 0,0 l/m 4,1 km/h (1 Bft) S-SW 193 11,8 C 13,1 C 8,1 km/h (2 Bft) 100 %
21.08.2019 08:40 12,8 C 93 % 1028,0 hPa 0,0 l/m 4,1 km/h (1 Bft) S 187 11,7 C 12,8 C 8,1 km/h (2 Bft) 100 %
21.08.2019 08:30 12,6 C 94 % 1028,0 hPa 0,0 l/m 3,4 km/h (1 Bft) S-SW 199 11,7 C 12,6 C 8,1 km/h (2 Bft) 100 %
21.08.2019 08:20 12,3 C 94 % 1027,9 hPa 0,0 l/m 3,5 km/h (1 Bft) S 188 11,4 C 12,3 C 10,1 km/h (2 Bft) 99 %
21.08.2019 08:10 12,1 C 94 % 1027,8 hPa 0,0 l/m 2,6 km/h (1 Bft) S-SW 192 11,2 C 12,1 C 8,1 km/h (2 Bft) 100 %
21.08.2019 08:00 11,9 C 94 % 1027,8 hPa 0,0 l/m 3,7 km/h (1 Bft) S-SW 192 11,0 C 11,9 C 10,1 km/h (2 Bft) 100 %
21.08.2019 07:50 11,7 C 95 % 1027,8 hPa 0,0 l/m 3,3 km/h (1 Bft) S-SW 192 10,9 C 11,7 C 8,1 km/h (2 Bft) 100 %
21.08.2019 07:40 11,5 C 95 % 1027,6 hPa 0,0 l/m 3,4 km/h (1 Bft) S-SW 192 10,7 C 11,5 C 8,1 km/h (2 Bft) 100 %
21.08.2019 07:30 11,3 C 95 % 1027,6 hPa 0,0 l/m 2,2 km/h (1 Bft) S-SW 192 10,5 C 11,3 C 8,1 km/h (2 Bft) 98 %
21.08.2019 07:20 11,2 C 95 % 1027,5 hPa 0,0 l/m 1,8 km/h (1 Bft) S-SW 192 10,4 C 11,2 C 6,1 km/h (2 Bft) 100 %
21.08.2019 07:10 11,2 C 95 % 1027,3 hPa 0,0 l/m 0,7 km/h (0 Bft) S-SW 192 10,4 C 11,2 C 4,1 km/h (1 Bft) 99 %
21.08.2019 07:00 11,1 C 94 % 1027,3 hPa 0,0 l/m 0,6 km/h (0 Bft) S-SW 192 10,2 C 11,1 C 4,1 km/h (1 Bft) 100 %
21.08.2019 06:50 11,2 C 94 % 1027,2 hPa 0,0 l/m 1,7 km/h (1 Bft) S-SW 192 10,3 C 11,2 C 6,1 km/h (2 Bft) 100 %
21.08.2019 06:40 11,2 C 95 % 1027,2 hPa 0,0 l/m 2,6 km/h (1 Bft) S-SW 192 10,4 C 11,2 C 8,1 km/h (2 Bft) 98 %
21.08.2019 06:30 11,1 C 95 % 1027,2 hPa 0,0 l/m 3,0 km/h (1 Bft) S-SW 192 10,3 C 11,1 C 8,1 km/h (2 Bft) 99 %
21.08.2019 06:20 11,1 C 95 % 1027,0 hPa 0,0 l/m 2,5 km/h (1 Bft) S-SW 192 10,3 C 11,1 C 8,1 km/h (2 Bft) 100 %
21.08.2019 06:10 10,9 C 95 % 1026,9 hPa 0,0 l/m 2,8 km/h (1 Bft) S-SW 192 10,1 C 10,9 C 8,1 km/h (2 Bft) 99 %
21.08.2019 06:00 10,8 C 94 % 1026,9 hPa 0,0 l/m 0,9 km/h (0 Bft) S-SW 192 9,9 C 10,8 C 4,1 km/h (1 Bft) 99 %
21.08.2019 05:50 10,8 C 94 % 1026,8 hPa 0,0 l/m 0,7 km/h (0 Bft) S-SW 192 9,9 C 10,8 C 6,1 km/h (2 Bft) 100 %
21.08.2019 05:40 10,9 C 94 % 1026,7 hPa 0,0 l/m 0,1 km/h (0 Bft) S-SW 192 10,0 C 10,9 C 2,0 km/h (1 Bft) 99 %
21.08.2019 05:30 11,0 C 94 % 1026,6 hPa 0,0 l/m 0,2 km/h (0 Bft) S-SW 192 10,1 C 11,0 C 4,1 km/h (1 Bft) 98 %
21.08.2019 05:20 11,1 C 94 % 1026,6 hPa 0,0 l/m 0,7 km/h (0 Bft) S-SW 192 10,2 C 11,1 C 4,1 km/h (1 Bft) 98 %
21.08.2019 05:10 11,1 C 94 % 1026,6 hPa 0,0 l/m 0,2 km/h (0 Bft) S-SW 192 10,2 C 11,1 C 2,0 km/h (1 Bft) 98 %
21.08.2019 05:00 11,1 C 94 % 1026,5 hPa 0,0 l/m 0,3 km/h (0 Bft) S-SW 192 10,2 C 11,1 C 2,0 km/h (1 Bft) 99 %
21.08.2019 04:50 11,1 C 94 % 1026,5 hPa 0,0 l/m 0,7 km/h (0 Bft) S-SW 192 10,2 C 11,1 C 4,1 km/h (1 Bft) 100 %
21.08.2019 04:40 11,1 C 93 % 1026,5 hPa 0,0 l/m 0,0 km/h (0 Bft) S-SW 192 10,0 C 11,1 C 0,0 km/h (0 Bft) 99 %
21.08.2019 04:30 11,2 C 93 % 1026,5 hPa 0,0 l/m 0,0 km/h (0 Bft) S-SW 192 10,1 C 11,2 C 0,0 km/h (0 Bft) 98 %
21.08.2019 04:20 11,3 C 93 % 1026,5 hPa 0,0 l/m 0,0 km/h (0 Bft) S-SW 192 10,2 C 11,3 C 0,0 km/h (0 Bft) 100 %
21.08.2019 04:10 11,4 C 94 % 1026,5 hPa 0,0 l/m 0,2 km/h (0 Bft) S-SW 192 10,5 C 11,4 C 2,0 km/h (1 Bft) 99 %
21.08.2019 04:00 11,4 C 93 % 1026,5 hPa 0,0 l/m 0,4 km/h (0 Bft) S-SW 192 10,3 C 11,4 C 2,0 km/h (1 Bft) 100 %
21.08.2019 03:50 11,5 C 93 % 1026,3 hPa 0,0 l/m 0,5 km/h (0 Bft) S-SW 192 10,4 C 11,5 C 4,1 km/h (1 Bft) 100 %
21.08.2019 03:40 11,6 C 93 % 1026,3 hPa 0,0 l/m 0,0 km/h (0 Bft) S-SW 192 10,5 C 11,6 C 0,0 km/h (0 Bft) 100 %
21.08.2019 03:30 11,6 C 93 % 1026,2 hPa 0,0 l/m 0,0 km/h (0 Bft) S-SW 192 10,5 C 11,6 C 0,0 km/h (0 Bft) 99 %
21.08.2019 03:20 11,7 C 93 % 1026,2 hPa 0,0 l/m 0,0 km/h (0 Bft) S-SW 192 10,6 C 11,7 C 0,0 km/h (0 Bft) 98 %
21.08.2019 03:10 11,8 C 93 % 1026,1 hPa 0,0 l/m 0,0 km/h (0 Bft) S-SW 192 10,7 C 11,8 C 0,0 km/h (0 Bft) 99 %
21.08.2019 03:00 11,9 C 93 % 1026,0 hPa 0,0 l/m 0,0 km/h (0 Bft) S-SW 192 10,8 C 11,9 C 0,0 km/h (0 Bft) 98 %
21.08.2019 02:50 11,9 C 93 % 1025,9 hPa 0,0 l/m 0,0 km/h (0 Bft) S-SW 192 10,8 C 11,9 C 0,0 km/h (0 Bft) 99 %
21.08.2019 02:40 12,0 C 93 % 1025,9 hPa 0,0 l/m 0,0 km/h (0 Bft) S-SW 192 10,9 C 12,0 C 0,0 km/h (0 Bft) 99 %
21.08.2019 02:30 12,1 C 93 % 1025,9 hPa 0,0 l/m 0,0 km/h (0 Bft) S-SW 192 11,0 C 12,1 C 0,0 km/h (0 Bft) 100 %
21.08.2019 02:20 12,2 C 92 % 1025,9 hPa 0,0 l/m 0,0 km/h (0 Bft) S-SW 192 10,9 C 12,2 C 0,0 km/h (0 Bft) 100 %
21.08.2019 02:10 12,3 C 93 % 1025,9 hPa 0,0 l/m 0,3 km/h (0 Bft) S-SW 192 11,2 C 12,3 C 4,1 km/h (1 Bft) 99 %
21.08.2019 02:00 12,4 C 93 % 1025,9 hPa 0,0 l/m 1,5 km/h (1 Bft) S-SW 192 11,3 C 12,4 C 4,1 km/h (1 Bft) 100 %
21.08.2019 01:50 12,3 C 93 % 1025,8 hPa 0,0 l/m 0,9 km/h (0 Bft) S-SW 192 11,2 C 12,3 C 4,1 km/h (1 Bft) 99 %
21.08.2019 01:40 12,3 C 92 % 1025,8 hPa 0,0 l/m 0,5 km/h (0 Bft) S-SW 192 11,0 C 12,3 C 4,1 km/h (1 Bft) 99 %
21.08.2019 01:30 12,3 C 92 % 1025,8 hPa 0,0 l/m 0,2 km/h (0 Bft) S-SW 192 11,0 C 12,3 C 4,1 km/h (1 Bft) 99 %
21.08.2019 01:20 12,2 C 92 % 1025,7 hPa 0,0 l/m 0,1 km/h (0 Bft) S-SW 192 10,9 C 12,2 C 2,0 km/h (1 Bft) 100 %
21.08.2019 01:10 12,4 C 91 % 1025,8 hPa 0,0 l/m 0,0 km/h (0 Bft) S-SW 192 11,0 C 12,4 C 0,0 km/h (0 Bft) 99 %
21.08.2019 01:00 12,5 C 91 % 1025,7 hPa 0,0 l/m 0,1 km/h (0 Bft) S-SW 192 11,1 C 12,5 C 2,0 km/h (1 Bft) 100 %
21.08.2019 00:50 12,7 C 90 % 1025,6 hPa 0,0 l/m 0,5 km/h (0 Bft) S-SW 192 11,1 C 12,7 C 2,0 km/h (1 Bft) 99 %
21.08.2019 00:40 12,8 C 90 % 1025,6 hPa 0,0 l/m 0,1 km/h (0 Bft) S-SW 192 11,2 C 12,8 C 2,0 km/h (1 Bft) 99 %
21.08.2019 00:30 13,0 C 89 % 1025,6 hPa 0,0 l/m 0,1 km/h (0 Bft) S-SW 192 11,2 C 13,0 C 2,0 km/h (1 Bft) 100 %
21.08.2019 00:20 13,2 C 89 % 1025,5 hPa 0,0 l/m 0,0 km/h (0 Bft) S-SW 192 11,4 C 13,2 C 0,0 km/h (0 Bft) 99 %
21.08.2019 00:10 13,4 C 89 % 1025,4 hPa 0,0 l/m 0,0 km/h (0 Bft) S-SW 192 11,6 C 13,4 C 2,0 km/h (1 Bft) 99 %
21.08.2019 00:00 13,6 C 89 % 1025,4 hPa 0,0 l/m 0,0 km/h (0 Bft) S-SW 192 11,8 C 13,6 C 0,0 km/h (0 Bft) 99 %
20.08.2019 23:50 13,8 C 89 % 1025,4 hPa 0,0 l/m 0,0 km/h (0 Bft) S-SW 192 12,0 C 13,8 C 2,0 km/h (1 Bft) 99 %
20.08.2019 23:40 13,9 C 88 % 1025,2 hPa 0,0 l/m 0,1 km/h (0 Bft) S-SW 192 11,9 C 13,9 C 2,0 km/h (1 Bft) 100 %
20.08.2019 23:30 14,1 C 88 % 1025,1 hPa 0,0 l/m 0,2 km/h (0 Bft) S-SW 192 12,1 C 14,1 C 4,1 km/h (1 Bft) 99 %
20.08.2019 23:20 14,2 C 87 % 1025,0 hPa 0,0 l/m 0,3 km/h (0 Bft) S-SW 192 12,1 C 14,2 C 4,1 km/h (1 Bft) 100 %
20.08.2019 23:10 14,4 C 87 % 1024,9 hPa 0,0 l/m 0,0 km/h (0 Bft) S-SW 192 12,3 C 14,4 C 2,0 km/h (1 Bft) 99 %
20.08.2019 23:00 14,6 C 86 % 1024,8 hPa 0,0 l/m 0,3 km/h (0 Bft) S-SW 192 12,3 C 14,6 C 4,1 km/h (1 Bft) 100 %
_ Min-Zeit 05:50 18:10 23:00 - 23:10 - - 05:50 05:50 00:00 04:30
Minimum _ 10,8 C 48 % 1024,8 hPa - 0,0 km/h (0 Bft) - - 9,9 C 10,8 C 0,0 km/h (0 Bft) 98 %
_ Max-Zeit 18:30 06:10 09:40 23:00 13:40 - - 10:40 18:10 11:50 00:30
Maximum _ 22,8 C 95 % 1028,3 hPa 0,0 l/m 12,0 km/h
S-SW (2 Bft)
- - 13,9 C 22,7 C 26,4 km/h
SW (4 Bft)
100 %
Durchschnitt _ 16,3 C 75 % 1026,9 hPa #0,0 l/m 2,9 km/h (1 Bft) S-SW - 11,4 C 16,3 C 8,0 km/h (2 Bft) 99 %